Time;durP1;ratioP1;P1;durP2;ratioP2;P2;SDS_P1;SDS_P2;PMS_P1;PMS_P2;Temp;Humidity;BMP_temperature;BMP_pressure;BME280_temperature;BME280_humidity;BME280_pressure;Samples;Min_cycle;Max_cycle;Signal;HPM_P1;HPM_P2
2023/02/03 00:01:52;;;;;;;6.70;2.30;;;;;;;1.17;67.82;100735.75;1480928;88;21582;-81
2023/02/03 00:04:18;;;;;;;7.27;2.23;;;;;;;1.18;67.65;100733.98;1475815;88;22420;-83
2023/02/03 00:06:45;;;;;;;4.20;2.27;;;;;;;1.19;66.94;100728.70;1469340;88;22425;-83
2023/02/03 00:09:11;;;;;;;3.80;2.20;;;;;;;1.19;65.89;100723.48;1461746;88;21710;-82
2023/02/03 00:11:37;;;;;;;3.63;1.80;;;;;;;1.27;65.63;100730.45;1467314;88;21687;-83
2023/02/03 00:14:06;;;;;;;3.60;2.10;;;;;;;1.31;64.77;100731.96;1470318;88;22515;-83
2023/02/03 00:16:32;;;;;;;3.27;1.60;;;;;;;1.40;64.14;100742.84;1476202;88;21807;-83
2023/02/03 00:18:58;;;;;;;3.03;1.63;;;;;;;1.47;63.05;100746.35;1471641;88;22418;-80
2023/02/03 00:21:25;;;;;;;4.20;1.73;;;;;;;1.58;62.46;100754.89;1481992;88;21614;-82
2023/02/03 00:23:53;;;;;;;4.73;2.30;;;;;;;1.68;62.20;100756.56;1472430;88;21567;-81
2023/02/03 00:26:19;;;;;;;2.87;1.27;;;;;;;1.78;60.88;100759.90;1478853;88;21815;-82
2023/02/03 00:28:46;;;;;;;3.43;1.43;;;;;;;1.92;60.63;100764.34;1477567;88;21533;-82
2023/02/03 00:31:20;;;;;;;2.80;1.43;;;;;;;1.97;60.79;100774.55;1471578;88;21731;-85
2023/02/03 00:33:47;;;;;;;3.07;1.20;;;;;;;1.98;60.61;100778.83;1472181;88;21816;-83
2023/02/03 00:36:13;;;;;;;2.70;1.50;;;;;;;1.99;60.53;100782.68;1482654;88;21599;-84
2023/02/03 00:38:40;;;;;;;3.47;1.70;;;;;;;2.00;60.74;100773.91;1483762;88;21785;-84
2023/02/03 00:41:06;;;;;;;5.10;1.43;;;;;;;2.00;60.38;100776.98;1483134;88;21577;-84
2023/02/03 00:43:33;;;;;;;5.33;2.03;;;;;;;2.00;59.99;100773.07;1492893;88;22531;-83
2023/02/03 00:45:59;;;;;;;3.67;1.53;;;;;;;2.06;59.84;100777.95;1480274;88;21618;-85
2023/02/03 00:48:25;;;;;;;3.63;1.57;;;;;;;2.01;60.02;100778.66;1475614;88;21591;-85
2023/02/03 00:50:51;;;;;;;5.93;2.73;;;;;;;1.96;59.59;100780.23;1479925;88;21824;-83
2023/02/03 00:53:18;;;;;;;2.63;1.83;;;;;;;1.97;60.20;100787.13;1475029;88;21795;-81
2023/02/03 00:55:44;;;;;;;3.63;1.83;;;;;;;1.89;60.18;100785.86;1470310;88;21591;-84
2023/02/03 00:58:10;;;;;;;2.90;1.70;;;;;;;1.87;60.76;100794.23;1482975;88;21776;-83
2023/02/03 01:00:37;;;;;;;7.83;2.33;;;;;;;1.78;61.20;100805.58;1481250;88;22605;-84
2023/02/03 01:03:03;;;;;;;6.30;2.33;;;;;;;1.70;61.51;100807.74;1469949;88;21856;-86
2023/02/03 01:05:29;;;;;;;5.23;2.97;;;;;;;1.62;61.90;100808.61;1474077;88;22258;-85
2023/02/03 01:07:55;;;;;;;4.13;2.20;;;;;;;1.58;62.25;100807.06;1473968;88;21752;-83
2023/02/03 01:10:22;;;;;;;3.40;1.93;;;;;;;1.56;62.34;100811.08;1474077;88;22510;-86
2023/02/03 01:12:48;;;;;;;2.93;1.80;;;;;;;1.54;62.44;100819.91;1473092;88;21840;-83
2023/02/03 01:15:14;;;;;;;4.23;2.00;;;;;;;1.54;62.50;100813.37;1468528;88;21760;-86
2023/02/03 01:17:40;;;;;;;3.67;1.83;;;;;;;1.57;62.84;100824.95;1471850;88;21576;-85
2023/02/03 01:20:11;;;;;;;4.37;2.40;;;;;;;1.58;62.33;100820.11;1472453;88;21564;-83
2023/02/03 01:22:37;;;;;;;3.35;1.90;;;;;;;1.62;62.50;100820.81;1469558;88;21642;-85
2023/02/03 01:25:04;;;;;;;6.53;2.90;;;;;;;1.62;62.38;100822.95;1476466;88;22428;-84
2023/02/03 01:27:33;;;;;;;3.63;1.93;;;;;;;1.63;62.93;100823.33;1472368;88;21598;-82
2023/02/03 01:29:59;;;;;;;5.87;3.17;;;;;;;1.57;62.57;100823.66;1472345;88;21693;-84
2023/02/03 01:32:26;;;;;;;4.17;1.93;;;;;;;1.55;63.05;100825.48;1473885;88;21635;-83
2023/02/03 01:34:52;;;;;;;5.77;2.27;;;;;;;1.54;63.19;100826.42;1474209;88;22642;-83
2023/02/03 01:37:19;;;;;;;5.50;2.80;;;;;;;1.52;63.28;100825.66;1473332;88;22588;-82
2023/02/03 01:39:45;;;;;;;5.03;2.03;;;;;;;1.50;63.41;100822.30;1475421;88;21806;-83
2023/02/03 01:42:15;;;;;;;5.40;2.43;;;;;;;1.52;63.58;100826.48;1478445;88;21749;-85
2023/02/03 01:44:46;;;;;;;4.15;2.83;;;;;;;1.45;63.69;100817.78;1445842;88;22507;-85
2023/02/03 01:47:21;;;;;;;4.53;2.13;;;;;;;1.39;63.93;100820.70;1477756;88;21490;-83
2023/02/03 01:49:56;;;;;;;4.13;2.30;;;;;;;1.37;64.24;100819.47;1474173;88;21727;-85
2023/02/03 01:52:23;;;;;;;4.10;1.87;;;;;;;1.33;64.64;100825.31;1461272;88;22614;-83
2023/02/03 01:54:53;;;;;;;3.80;2.27;;;;;;;1.30;64.69;100820.72;1464133;89;21553;-83
2023/02/03 01:57:27;;;;;;;6.30;2.83;;;;;;;1.23;64.97;100824.55;1468418;88;21846;-84
2023/02/03 01:59:56;;;;;;;4.67;2.30;;;;;;;1.17;65.33;100818.34;1472197;88;22412;-83
2023/02/03 02:02:23;;;;;;;4.83;2.10;;;;;;;1.10;65.90;100817.36;1481754;88;21617;-85
2023/02/03 02:05:04;;;;;;;4.67;2.67;;;;;;;1.03;66.79;100813.82;1468379;88;21611;-85
2023/02/03 02:07:33;;;;;;;4.65;2.05;;;;;;;1.01;67.12;100813.08;1473428;88;21819;-86
2023/02/03 02:09:59;;;;;;;5.13;2.93;;;;;;;0.96;67.51;100825.49;1481752;88;21384;-86
2023/02/03 02:12:25;;;;;;;3.70;2.27;;;;;;;0.93;67.60;100833.00;1462011;88;21699;-86
2023/02/03 02:14:52;;;;;;;7.17;3.13;;;;;;;0.90;68.28;100832.69;1470369;88;21633;-83
2023/02/03 02:17:36;;;;;;;4.87;2.57;;;;;;;0.89;67.90;100833.63;1473846;88;21684;-84
2023/02/03 02:20:34;;;;;;;3.80;2.87;;;;;;;0.90;67.66;100842.28;1477719;88;21495;-85
2023/02/03 02:23:47;;;;;;;6.13;3.03;;;;;;;0.88;67.78;100832.38;1467747;88;21744;-86
2023/02/03 02:26:46;;;;;;;4.97;2.57;;;;;;;0.83;67.69;100824.77;1478938;88;21718;-85
2023/02/03 02:29:33;;;;;;;4.47;2.37;;;;;;;0.74;68.58;100832.21;1474351;88;21666;-85
2023/02/03 02:32:11;;;;;;;3.60;2.60;;;;;;;0.77;68.65;100829.45;1474030;88;22059;-83
2023/02/03 02:35:12;;;;;;;7.03;2.83;;;;;;;0.77;68.60;100830.75;1465654;88;21872;-84
2023/02/03 02:38:06;;;;;;;6.70;2.47;;;;;;;0.75;68.89;100836.49;1476987;88;21797;-84
2023/02/03 02:40:49;;;;;;;4.20;2.30;;;;;;;0.72;69.10;100836.21;1475280;88;21540;-84
2023/02/03 02:43:42;;;;;;;4.70;2.37;;;;;;;0.69;69.72;100844.14;1468928;88;22652;-85
2023/02/03 02:46:16;;;;;;;6.83;2.83;;;;;;;0.69;69.98;100853.27;1472339;88;21809;-80
2023/02/03 02:48:53;;;;;;;4.13;2.67;;;;;;;0.67;69.84;100859.03;1472996;88;22308;-84
2023/02/03 02:51:22;;;;;;;5.13;2.50;;;;;;;0.65;69.72;100858.25;1471859;88;21656;-85
2023/02/03 02:53:56;;;;;;;8.53;4.03;;;;;;;0.65;69.80;100864.77;1479707;88;21639;-83
2023/02/03 02:56:25;;;;;;;6.27;2.37;;;;;;;0.63;69.70;100862.68;1475041;88;21695;-84
2023/02/03 02:58:54;;;;;;;6.33;3.17;;;;;;;0.60;69.68;100872.78;1472653;88;21760;-80
2023/02/03 03:01:20;;;;;;;7.30;2.73;;;;;;;0.61;69.75;100878.86;1473625;88;21672;-81
2023/02/03 03:03:46;;;;;;;4.77;2.97;;;;;;;0.60;69.67;100871.48;1474150;88;21594;-83
2023/02/03 03:06:20;;;;;;;4.27;2.53;;;;;;;0.56;69.95;100867.34;1477066;88;21683;-83
2023/02/03 03:08:55;;;;;;;4.53;2.57;;;;;;;0.58;69.89;100868.59;1468662;88;23195;-82
2023/02/03 03:11:26;;;;;;;4.50;2.90;;;;;;;0.51;70.10;100874.53;1468941;88;21590;-83
2023/02/03 03:13:55;;;;;;;3.52;2.17;;;;;;;0.39;70.76;100869.44;1466666;88;22791;-82
2023/02/03 03:16:27;;;;;;;7.53;3.10;;;;;;;0.37;70.60;100876.94;1474742;88;22874;-83
2023/02/03 03:19:03;;;;;;;8.50;3.87;;;;;;;0.31;70.83;100874.16;1477839;88;21532;-82
2023/02/03 03:21:36;;;;;;;5.13;2.67;;;;;;;0.30;70.84;100884.66;1479616;88;21757;-83
2023/02/03 03:24:07;;;;;;;4.77;2.87;;;;;;;0.27;70.98;100882.20;1471199;88;21435;-83
2023/02/03 03:26:43;;;;;;;;;;;;;;;0.23;71.28;100884.08;1481830;88;21873;-83
2023/02/03 03:29:39;;;;;;;5.37;2.30;;;;;;;0.24;71.56;100891.45;1477808;88;20388;-83
2023/02/03 03:32:05;;;;;;;4.00;2.80;;;;;;;0.25;70.86;100887.46;1469515;88;22189;-83
2023/02/03 03:34:33;;;;;;;5.77;2.87;;;;;;;0.29;70.48;100887.73;1461533;89;21642;-81
2023/02/03 03:37:35;;;;;;;5.23;2.83;;;;;;;0.34;69.88;100889.63;1474065;88;21756;-83
2023/02/03 03:40:25;;;;;;;6.97;2.90;;;;;;;0.38;69.46;100895.57;1470965;88;21724;-83
2023/02/03 03:43:02;;;;;;;7.77;3.17;;;;;;;0.39;69.32;100891.58;1465669;89;21503;-85
2023/02/03 03:45:46;;;;;;;5.83;3.37;;;;;;;0.39;69.13;100892.88;1465915;88;22282;-83
2023/02/03 03:48:20;;;;;;;4.40;2.33;;;;;;;0.38;69.04;100889.06;1473568;88;22468;-84
2023/02/03 03:50:54;;;;;;;4.43;2.03;;;;;;;0.34;68.85;100877.92;1464231;88;22132;-81
2023/02/03 03:53:22;;;;;;;5.47;2.50;;;;;;;0.31;68.72;100879.36;1470386;88;21743;-84
2023/02/03 03:55:51;;;;;;;4.80;2.83;;;;;;;0.29;68.85;100880.34;1483564;88;21857;-84
2023/02/03 03:58:26;;;;;;;6.27;2.77;;;;;;;0.26;69.04;100882.66;1467350;88;21667;-85
2023/02/03 04:00:55;;;;;;;7.43;3.53;;;;;;;0.22;69.14;100892.81;1475902;88;22404;-84
2023/02/03 04:03:26;;;;;;;4.13;2.47;;;;;;;0.20;69.17;100895.94;1478958;88;21502;-84
2023/02/03 04:05:52;;;;;;;4.75;2.20;;;;;;;0.17;69.03;100886.96;1470495;88;21827;-81
2023/02/03 04:08:19;;;;;;;5.73;2.47;;;;;;;0.10;68.93;100893.38;1457666;88;21340;-81
2023/02/03 04:10:45;;;;;;;4.70;2.42;;;;;;;0.07;69.04;100890.91;1479537;88;22908;-81
2023/02/03 04:13:12;;;;;;;4.63;2.20;;;;;;;0.03;69.34;100894.13;1474528;88;21449;-79
2023/02/03 04:15:38;;;;;;;6.08;2.83;;;;;;;-0.01;69.16;100892.09;1487119;88;21833;-81
2023/02/03 04:18:05;;;;;;;4.27;2.20;;;;;;;-0.06;69.23;100891.47;1482597;88;21355;-80
2023/02/03 04:20:32;;;;;;;5.30;2.20;;;;;;;-0.04;69.28;100892.23;1479275;88;21674;-79
2023/02/03 04:22:59;;;;;;;9.05;3.98;;;;;;;-0.07;69.31;100888.46;1477392;88;21644;-81
2023/02/03 04:25:26;;;;;;;5.28;2.70;;;;;;;-0.07;69.50;100891.06;1466536;88;21560;-83
2023/02/03 04:27:52;;;;;;;5.45;2.72;;;;;;;-0.07;69.61;100896.27;1466195;88;21354;-81
2023/02/03 04:30:18;;;;;;;8.47;3.13;;;;;;;-0.10;69.51;100896.41;1482160;88;21521;-81
2023/02/03 04:32:46;;;;;;;7.22;3.87;;;;;;;-0.11;69.38;100893.43;1468808;88;22115;-80
2023/02/03 04:35:13;;;;;;;3.92;2.27;;;;;;;-0.11;69.33;100892.13;1479387;88;21281;-81
2023/02/03 04:37:40;;;;;;;7.28;2.90;;;;;;;-0.09;69.26;100886.38;1472243;88;21355;-80
2023/02/03 04:40:09;;;;;;;3.00;1.80;;;;;;;-0.09;69.28;100890.28;1466797;88;21509;-81
2023/02/03 04:42:39;;;;;;;4.83;3.00;;;;;;;-0.11;69.24;100884.32;1480251;88;21553;-82
2023/02/03 04:45:09;;;;;;;12.40;6.72;;;;;;;-0.11;69.36;100885.63;1474777;88;21673;-81
2023/02/03 04:47:36;;;;;;;15.60;8.10;;;;;;;-0.14;69.15;100883.16;1480978;88;21362;-83
2023/02/03 04:50:03;;;;;;;20.60;10.45;;;;;;;-0.18;69.14;100884.19;1475623;88;21664;-80
2023/02/03 04:52:29;;;;;;;104.50;44.80;;;;;;;-0.23;69.27;100883.57;1474896;88;21554;-83
2023/02/03 04:54:55;;;;;;;55.85;25.68;;;;;;;-0.27;69.29;100888.50;1473985;88;21474;-82
2023/02/03 04:57:21;;;;;;;75.92;37.05;;;;;;;-0.34;69.65;100891.00;1476085;88;21531;-81
2023/02/03 04:59:48;;;;;;;72.12;33.45;;;;;;;-0.41;69.66;100899.50;1478784;88;22492;-82
2023/02/03 05:02:14;;;;;;;34.20;17.93;;;;;;;-0.49;69.85;100900.28;1472378;88;22306;-82
2023/02/03 05:04:40;;;;;;;30.05;12.78;;;;;;;-0.55;70.12;100913.08;1472463;88;21904;-82
2023/02/03 05:07:06;;;;;;;31.57;14.43;;;;;;;-0.59;70.25;100916.73;1475599;88;21383;-82
2023/02/03 05:09:32;;;;;;;34.92;16.12;;;;;;;-0.64;70.30;100924.34;1472747;88;21413;-82
2023/02/03 05:11:58;;;;;;;18.20;9.83;;;;;;;-0.70;70.35;100933.23;1462051;88;21643;-83
2023/02/03 05:14:25;;;;;;;16.42;8.20;;;;;;;-0.75;70.37;100936.47;1467254;88;21460;-84
2023/02/03 05:16:51;;;;;;;19.32;9.90;;;;;;;-0.80;70.41;100935.37;1483896;88;21473;-82
2023/02/03 05:19:17;;;;;;;18.35;8.65;;;;;;;-0.82;70.46;100942.37;1475168;88;21391;-83
2023/02/03 05:21:44;;;;;;;17.50;9.93;;;;;;;-0.86;70.40;100936.06;1476605;88;21428;-84
2023/02/03 05:24:10;;;;;;;13.70;7.60;;;;;;;-0.92;71.05;100936.72;1470122;88;21517;-83
2023/02/03 05:26:36;;;;;;;14.63;8.08;;;;;;;-0.96;71.21;100935.59;1479510;88;21531;-85
2023/02/03 05:29:03;;;;;;;19.45;10.98;;;;;;;-1.00;71.11;100936.18;1470408;88;22373;-84
2023/02/03 05:31:29;;;;;;;23.87;11.48;;;;;;;-1.05;71.22;100932.07;1472920;88;21608;-87
2023/02/03 05:33:56;;;;;;;16.67;8.88;;;;;;;-1.12;71.46;100937.97;1476323;88;21413;-81
2023/02/03 05:36:23;;;;;;;13.88;7.85;;;;;;;-1.17;71.09;100936.00;1470678;88;21546;-80
2023/02/03 05:38:49;;;;;;;15.38;8.43;;;;;;;-1.21;71.39;100933.11;1477816;88;21502;-81
2023/02/03 05:44:00;;;;;;;12.88;7.35;;;;;;;-1.30;72.80;100936.08;1480210;88;21531;-81
2023/02/03 05:46:26;;;;;;;15.40;6.65;;;;;;;-1.29;72.54;100936.49;1474029;88;22437;-82
2023/02/03 05:48:52;;;;;;;14.83;7.42;;;;;;;-1.25;72.38;100940.65;1474733;88;21362;-82
2023/02/03 05:51:19;;;;;;;13.25;7.12;;;;;;;-1.23;72.34;100936.25;1476345;88;21985;-85
2023/02/03 05:53:45;;;;;;;10.58;6.33;;;;;;;-1.21;72.67;100944.80;1470212;88;21369;-81
2023/02/03 05:56:11;;;;;;;12.43;7.15;;;;;;;-1.20;72.42;100939.56;1484583;88;21369;-82
2023/02/03 05:58:37;;;;;;;12.15;8.05;;;;;;;-1.18;72.67;100949.88;1470940;88;21484;-81
2023/02/03 06:01:04;;;;;;;16.90;6.95;;;;;;;-1.20;72.38;100953.02;1479843;88;22155;-82
2023/02/03 06:03:30;;;;;;;13.20;6.72;;;;;;;-1.19;72.29;100957.29;1479173;88;21510;-81
2023/02/03 06:05:57;;;;;;;10.93;6.10;;;;;;;-1.18;72.44;100949.88;1479862;88;21377;-83
2023/02/03 06:08:27;;;;;;;17.30;7.42;;;;;;;-1.19;72.57;100949.50;1478134;88;22401;-84
2023/02/03 06:10:54;;;;;;;9.70;6.08;;;;;;;-1.19;72.47;100954.69;1468523;88;22862;-84
2023/02/03 06:13:20;;;;;;;9.88;5.62;;;;;;;-1.18;72.40;100958.97;1469104;88;21546;-83
2023/02/03 06:15:46;;;;;;;14.58;6.28;;;;;;;-1.19;72.33;100964.62;1470102;88;21510;-82
2023/02/03 06:18:12;;;;;;;10.75;5.35;;;;;;;-1.18;72.38;100968.06;1474493;88;21324;-81
2023/02/03 06:20:38;;;;;;;13.15;5.42;;;;;;;-1.16;72.42;100964.50;1474284;88;21384;-83
2023/02/03 06:23:04;;;;;;;16.80;7.25;;;;;;;-1.12;72.38;100962.66;1472389;88;21454;-81
2023/02/03 06:25:31;;;;;;;10.10;5.75;;;;;;;-1.10;72.50;100969.91;1473519;88;22226;-83
2023/02/03 06:27:58;;;;;;;11.70;4.83;;;;;;;-1.08;72.42;100972.00;1468976;88;21517;-81
2023/02/03 06:30:24;;;;;;;10.13;4.28;;;;;;;-1.03;72.36;100973.98;1482948;88;21428;-84
2023/02/03 06:32:51;;;;;;;8.28;4.53;;;;;;;-0.99;72.24;100973.39;1477426;88;22614;-81
2023/02/03 06:35:17;;;;;;;9.35;4.80;;;;;;;-0.94;72.33;100977.50;1475884;88;21339;-80
2023/02/03 06:37:44;;;;;;;7.70;4.15;;;;;;;-0.87;72.32;100977.26;1477673;88;21495;-83
2023/02/03 06:40:12;;;;;;;6.35;3.80;;;;;;;-0.80;72.27;100973.52;1474124;88;21484;-83
2023/02/03 06:42:38;;;;;;;9.03;4.95;;;;;;;-0.73;72.41;100976.25;1478137;88;21554;-83
2023/02/03 06:45:05;;;;;;;12.25;5.05;;;;;;;-0.61;72.41;100967.94;1472284;88;22345;-84
2023/02/03 06:47:31;;;;;;;8.93;4.47;;;;;;;-0.52;72.27;100968.89;1482409;88;22256;-85
2023/02/03 06:49:58;;;;;;;10.00;4.58;;;;;;;-0.40;72.24;100974.45;1468249;88;22567;-86
2023/02/03 06:52:24;;;;;;;6.87;3.70;;;;;;;-0.31;72.04;100982.74;1475725;88;21421;-85
2023/02/03 06:54:50;;;;;;;7.17;3.65;;;;;;;-0.24;72.07;100991.12;1474735;88;21491;-83
2023/02/03 06:57:16;;;;;;;6.80;3.63;;;;;;;-0.16;71.98;100989.05;1475477;88;21429;-84
2023/02/03 06:59:42;;;;;;;7.83;4.23;;;;;;;-0.09;71.87;100991.77;1476784;88;22681;-83
2023/02/03 07:02:10;;;;;;;6.07;3.17;;;;;;;-0.04;71.82;100985.91;1471162;88;21422;-83
2023/02/03 07:04:37;;;;;;;6.40;3.77;;;;;;;0.01;71.70;100979.22;1474337;88;21611;-83
2023/02/03 07:07:04;;;;;;;17.40;5.07;;;;;;;0.06;71.55;100981.59;1470480;88;21612;-83
2023/02/03 07:09:31;;;;;;;12.80;4.53;;;;;;;0.11;71.55;100980.95;1477728;88;21979;-83
2023/02/03 07:11:57;;;;;;;8.37;3.47;;;;;;;0.18;71.60;100982.39;1475189;88;21703;-81
2023/02/03 07:14:23;;;;;;;7.43;4.57;;;;;;;0.25;71.60;100974.68;1473478;88;21603;-85
2023/02/03 07:16:49;;;;;;;6.53;4.33;;;;;;;0.37;71.66;100979.33;1478099;88;22550;-85
2023/02/03 07:19:15;;;;;;;17.40;6.77;;;;;;;0.50;71.65;100973.13;1480881;88;21723;-89
2023/02/03 07:21:41;;;;;;;18.03;8.87;;;;;;;0.63;71.48;100974.70;1478086;88;21608;-90
2023/02/03 07:24:07;;;;;;;22.93;11.43;;;;;;;0.74;70.95;100971.61;1473328;88;21559;-89
2023/02/03 07:26:33;;;;;;;28.70;12.37;;;;;;;0.89;70.56;100967.84;1444262;88;22637;-89
2023/02/03 07:29:00;;;;;;;54.17;14.83;;;;;;;1.05;70.00;100963.19;1472061;88;21600;-89
2023/02/03 07:31:26;;;;;;;34.37;13.60;;;;;;;1.19;69.41;100962.06;1471377;88;21815;-90
2023/02/03 07:33:52;;;;;;;30.77;16.23;;;;;;;1.33;69.37;100950.50;1464998;88;22636;-89
2023/02/03 07:36:18;;;;;;;26.00;11.33;;;;;;;1.49;68.80;100949.26;1472279;88;21673;-89
2023/02/03 07:38:44;;;;;;;21.87;11.73;;;;;;;1.70;68.99;100945.21;1453780;88;21776;-88
2023/02/03 07:41:10;;;;;;;19.53;9.63;;;;;;;1.88;68.38;100940.81;1448522;88;21702;-89
2023/02/03 07:43:36;;;;;;;24.97;10.43;;;;;;;2.06;68.28;100938.53;1472651;88;21777;-88
2023/02/03 07:46:03;;;;;;;13.33;7.30;;;;;;;2.20;67.25;100942.56;1461553;88;21933;-88
2023/02/03 07:48:29;;;;;;;15.67;7.93;;;;;;;2.34;66.78;100933.99;1476271;87;21630;-88
2023/02/03 07:50:55;;;;;;;11.70;7.57;;;;;;;2.47;66.91;100936.77;1480819;88;21754;-89
2023/02/03 07:53:22;;;;;;;15.87;7.57;;;;;;;2.55;64.28;100935.91;1470526;88;22633;-88
2023/02/03 07:55:48;;;;;;;16.30;9.47;;;;;;;2.60;64.56;100933.05;1467579;88;21857;-85
2023/02/03 07:58:15;;;;;;;16.33;8.07;;;;;;;2.70;65.42;100925.93;1475183;88;21724;-87
2023/02/03 08:00:42;;;;;;;20.37;9.90;;;;;;;2.80;64.82;100919.72;1455700;88;22820;-87
2023/02/03 08:03:08;;;;;;;18.30;8.80;;;;;;;2.86;62.58;100924.59;1470892;88;21904;-87
2023/02/03 08:05:35;;;;;;;20.43;9.93;;;;;;;2.94;63.15;100924.17;1449015;88;21801;-88
2023/02/03 08:08:01;;;;;;;21.57;8.53;;;;;;;3.03;63.34;100923.65;1472384;88;21958;-86
2023/02/03 08:10:27;;;;;;;19.93;9.10;;;;;;;3.21;62.98;100926.14;1471070;88;22136;-84
2023/02/03 08:12:55;;;;;;;20.03;7.33;;;;;;;3.21;62.98;100926.14;1472341;88;22139;-84
2023/02/03 08:15:22;;;;;;;26.70;10.30;;;;;;;3.18;61.71;100908.02;1396785;88;23070;-86
2023/02/03 08:17:49;;;;;;;19.17;8.37;;;;;;;3.27;62.20;100921.39;1559079;88;21911;-83
2023/02/03 08:20:15;;;;;;;6.13;3.13;;;;;;;3.25;61.68;100914.56;1394920;89;21908;-85
2023/02/03 08:22:42;;;;;;;6.10;3.07;;;;;;;3.25;61.68;100914.56;1397780;88;22833;-85
2023/02/03 08:25:09;;;;;;;5.03;2.70;;;;;;;3.28;62.17;100925.61;1398215;88;22022;-85
2023/02/03 08:27:35;;;;;;;5.27;2.43;;;;;;;3.30;61.23;100925.61;1403251;88;21989;-83
2023/02/03 08:30:02;;;;;;;4.80;2.60;;;;;;;3.39;59.83;100925.06;1398418;88;22885;-84
2023/02/03 08:32:28;;;;;;;6.43;2.50;;;;;;;3.39;59.83;100925.06;1397813;88;22041;-82
2023/02/03 08:34:55;;;;;;;6.27;2.50;;;;;;;3.39;59.30;100932.92;1514685;88;22114;-84
2023/02/03 08:37:24;;;;;;;4.97;2.90;;;;;;;3.43;58.12;100935.75;1477616;88;22202;-85
2023/02/03 08:39:51;;;;;;;5.93;3.53;;;;;;;3.48;59.89;100937.64;1469332;88;22912;-87
2023/02/03 08:42:18;;;;;;;9.03;4.73;;;;;;;3.56;59.46;100945.86;1402689;88;22107;-85
2023/02/03 08:44:45;;;;;;;8.10;4.90;;;;;;;3.61;59.96;100942.52;1558979;88;21969;-84
2023/02/03 08:47:11;;;;;;;22.70;8.67;;;;;;;3.66;59.61;100947.95;1397935;88;22005;-84
2023/02/03 08:49:38;;;;;;;12.73;5.77;;;;;;;3.70;59.44;100950.77;1397071;90;22198;-85
2023/02/03 08:52:07;;;;;;;8.50;4.07;;;;;;;3.74;58.92;100953.56;1398050;88;21962;-85
2023/02/03 08:54:34;;;;;;;9.80;5.10;;;;;;;3.68;57.63;100951.30;1395470;88;22313;-85
2023/02/03 08:57:00;;;;;;;13.63;6.10;;;;;;;3.69;58.27;100955.63;1397600;88;21946;-87
2023/02/03 08:59:26;;;;;;;13.57;5.50;;;;;;;3.69;57.93;100953.02;1398669;88;21949;-84
2023/02/03 09:01:53;;;;;;;11.83;6.23;;;;;;;3.66;57.33;100954.03;1538261;88;22841;-86
2023/02/03 09:04:23;;;;;;;12.70;7.07;;;;;;;3.60;57.91;100964.39;1397966;88;21968;-88
2023/02/03 09:06:48;;;;;;;13.73;6.43;;;;;;;3.61;58.25;100959.52;1557874;88;21957;-85
2023/02/03 09:09:14;;;;;;;9.23;5.03;;;;;;;3.61;58.31;100973.08;1403923;88;22135;-86
2023/02/03 09:11:41;;;;;;;10.03;4.70;;;;;;;3.64;59.08;100973.38;1400031;88;21961;-84
2023/02/03 09:14:08;;;;;;;8.43;4.93;;;;;;;3.60;57.91;100973.55;1390115;89;22042;-86
2023/02/03 09:16:35;;;;;;;10.80;5.03;;;;;;;3.55;57.91;100978.20;1397426;89;22825;-86
2023/02/03 09:19:01;;;;;;;9.17;6.33;;;;;;;3.57;59.03;100976.36;1398482;88;21962;-87
2023/02/03 09:21:27;;;;;;;14.03;5.97;;;;;;;3.57;58.95;100976.36;1398266;88;22110;-85
2023/02/03 09:23:54;;;;;;;16.20;8.27;;;;;;;3.57;58.91;100981.59;1479484;88;23103;-87
2023/02/03 09:26:20;;;;;;;12.80;6.43;;;;;;;3.54;58.36;100975.67;1474582;88;22241;-85
2023/02/03 09:28:46;;;;;;;8.60;5.17;;;;;;;3.49;58.68;100978.57;1475379;88;22109;-85
2023/02/03 09:31:18;;;;;;;11.53;6.90;;;;;;;3.53;59.38;100970.91;1475591;88;22076;-86
2023/02/03 09:33:45;;;;;;;9.03;5.77;;;;;;;3.59;59.14;100973.63;1473964;88;22116;-85
2023/02/03 09:36:12;;;;;;;11.43;6.20;;;;;;;3.59;59.11;100966.62;1473227;88;22084;-85
2023/02/03 09:38:39;;;;;;;11.43;5.50;;;;;;;3.61;58.43;100960.84;1473601;88;22241;-82
2023/02/03 09:41:45;;;;;;;9.43;5.50;;;;;;;3.65;59.39;100955.42;1471223;88;22013;-83
2023/02/03 09:44:22;;;;;;;9.00;4.90;;;;;;;3.60;59.28;100948.69;1428845;91;23753;-84
2023/02/03 09:46:54;;;;;;;10.93;5.47;;;;;;;3.56;59.72;100951.09;1510197;91;21986;-83
2023/02/03 09:49:43;;;;;;;10.00;5.87;;;;;;;3.56;59.24;100952.41;1383603;89;22043;-82
2023/02/03 09:52:18;;;;;;;9.33;5.30;;;;;;;3.48;58.64;100942.88;1396199;90;22014;-83
2023/02/03 09:55:04;;;;;;;12.30;5.70;;;;;;;3.46;58.49;100943.42;1396371;90;22012;-82
2023/02/03 09:58:02;;;;;;;10.40;5.20;;;;;;;3.47;59.24;100935.94;1418789;88;22982;-88
2023/02/03 10:00:34;;;;;;;15.03;6.83;;;;;;;3.56;58.46;100943.24;1401575;88;22093;-88
2023/02/03 10:03:20;;;;;;;14.97;6.57;;;;;;;3.96;58.04;100923.02;1393889;90;21973;-87
2023/02/03 10:06:04;;;;;;;17.03;7.70;;;;;;;4.34;56.46;100917.19;1528321;88;23149;-87
2023/02/03 10:08:42;;;;;;;11.10;5.67;;;;;;;4.46;56.03;100891.08;1462629;88;22588;-85
2023/02/03 10:11:22;;;;;;;10.13;5.27;;;;;;;4.46;56.28;100891.08;1463370;88;22341;-84
2023/02/03 10:14:21;;;;;;;6.22;3.75;;;;;;;4.44;55.76;100889.02;1475568;88;22374;-84
2023/02/03 10:17:29;;;;;;;6.50;4.30;;;;;;;4.42;55.46;100909.22;1474662;88;21546;-90
2023/02/03 10:20:03;;;;;;;13.73;6.60;;;;;;;4.30;55.21;100889.87;1474289;88;21577;-86
2023/02/03 10:22:34;;;;;;;12.33;6.43;;;;;;;4.25;55.67;100881.45;1471712;88;21347;-87
2023/02/03 10:25:08;;;;;;;14.07;6.08;;;;;;;4.20;55.17;100880.92;1476811;88;21369;-86
2023/02/03 10:27:37;;;;;;;12.47;6.10;;;;;;;4.18;55.73;100879.33;1464871;88;21583;-87
2023/02/03 10:30:29;;;;;;;22.33;8.10;;;;;;;4.17;55.75;100872.38;1474320;88;21369;-89
2023/02/03 10:33:01;;;;;;;12.00;6.23;;;;;;;4.14;56.76;100868.65;1475786;88;21627;-89
2023/02/03 10:35:38;;;;;;;18.20;7.50;;;;;;;4.20;57.53;100861.71;1471323;88;22183;-88
2023/02/03 10:38:06;;;;;;;10.80;6.40;;;;;;;4.26;57.45;100858.73;1473934;88;21457;-89
2023/02/03 10:40:33;;;;;;;22.40;9.60;;;;;;;4.41;56.87;100847.27;1557856;88;21295;-88
2023/02/03 10:45:43;;;;;;;13.93;7.20;;;;;;;4.47;56.12;100844.73;1552893;88;21281;-85
2023/02/03 10:48:14;;;;;;;6.73;4.17;;;;;;;4.55;56.31;100843.77;1398446;88;21267;-86
2023/02/03 10:50:45;;;;;;;9.65;4.25;;;;;;;4.48;55.21;100837.23;1393972;88;22228;-84
2023/02/03 10:53:23;;;;;;;;;;;;;;;4.43;55.23;100836.23;1397632;89;22227;-87
2023/02/03 10:56:04;;;;;;;12.70;5.80;;;;;;;4.43;55.66;100837.54;1559535;88;20223;-88
2023/02/03 10:58:32;;;;;;;8.13;4.45;;;;;;;4.42;55.47;100827.97;1559096;88;22171;-87
2023/02/03 11:08:19;;;;;;;7.27;4.53;;;;;;;4.90;55.93;100827.05;1383139;89;21409;-86
2023/02/03 11:10:46;;;;;;;7.07;4.33;;;;;;;4.99;54.73;100822.97;1529218;89;21391;-88
2023/02/03 11:13:24;;;;;;;11.77;6.00;;;;;;;5.13;54.84;100809.77;1388029;89;21302;-84
2023/02/03 11:16:01;;;;;;;8.37;4.87;;;;;;;5.31;55.23;100803.73;1378177;89;21581;-90
2023/02/03 11:19:02;;;;;;;6.10;4.27;;;;;;;5.36;53.53;100797.71;1393349;89;21409;-88
2023/02/03 11:21:55;;;;;;;13.68;7.10;;;;;;;5.21;53.29;100779.09;1538671;89;21239;-89
2023/02/03 11:24:31;;;;;;;9.93;5.20;;;;;;;5.21;53.29;100779.09;1410981;89;21228;-88
2023/02/03 11:27:03;;;;;;;6.67;3.83;;;;;;;5.21;52.99;100784.33;1408488;89;21405;-85
2023/02/03 11:29:33;;;;;;;5.13;2.47;;;;;;;4.93;51.80;100780.10;1431781;89;21420;-88
2023/02/03 11:32:15;;;;;;;7.10;3.60;;;;;;;4.72;52.50;100772.72;1454183;89;21509;-88
2023/02/03 11:34:55;;;;;;;8.17;3.83;;;;;;;4.65;53.58;100770.59;1381824;89;21531;-88
2023/02/03 11:37:41;;;;;;;6.83;3.70;;;;;;;4.69;53.96;100759.82;1524816;89;21398;-88
2023/02/03 11:40:16;;;;;;;8.00;4.57;;;;;;;4.74;53.48;100747.69;1457427;89;21509;-91
2023/02/03 11:42:54;;;;;;;9.33;3.67;;;;;;;4.89;54.21;100737.51;1457058;89;21348;-89
2023/02/03 11:45:27;;;;;;;7.57;4.83;;;;;;;4.77;52.55;100726.51;1457881;89;21421;-86
2023/02/03 11:47:58;;;;;;;5.87;3.80;;;;;;;4.81;53.41;100720.61;1455456;89;21406;-85
2023/02/03 11:50:39;;;;;;;6.70;3.98;;;;;;;4.81;52.59;100704.40;1457681;89;21626;-89
2023/02/03 11:53:50;;;;;;;8.38;3.67;;;;;;;4.88;52.63;100709.58;1456828;89;21597;-87
2023/02/03 11:56:38;;;;;;;;;;;;;;;5.02;52.47;100702.56;1458034;89;21561;-87
2023/02/03 11:59:22;;;;;;;10.17;4.93;;;;;;;5.14;51.30;100693.84;1469093;88;20361;-89